sensor_id;sensor_type;location;lat;lon;timestamp;P1;durP1;ratioP1;P2;durP2;ratioP2
9076;SDS011;4574;51.072;17.174;2023-06-04T00:00:03;12.67;;;6.30;;
9076;SDS011;4574;51.072;17.174;2023-06-04T00:02:33;11.80;;;6.13;;
9076;SDS011;4574;51.072;17.174;2023-06-04T00:05:01;13.37;;;6.30;;
9076;SDS011;4574;51.072;17.174;2023-06-04T00:07:29;9.40;;;6.03;;
9076;SDS011;4574;51.072;17.174;2023-06-04T00:09:57;11.03;;;5.77;;
9076;SDS011;4574;51.072;17.174;2023-06-04T00:12:26;11.43;;;5.37;;
9076;SDS011;4574;51.072;17.174;2023-06-04T00:14:56;7.30;;;4.27;;
9076;SDS011;4574;51.072;17.174;2023-06-04T00:17:24;7.97;;;4.20;;
9076;SDS011;4574;51.072;17.174;2023-06-04T00:19:52;11.70;;;5.20;;
9076;SDS011;4574;51.072;17.174;2023-06-04T00:22:20;8.43;;;5.13;;
9076;SDS011;4574;51.072;17.174;2023-06-04T00:24:49;18.60;;;7.93;;
9076;SDS011;4574;51.072;17.174;2023-06-04T00:27:17;15.57;;;6.67;;
9076;SDS011;4574;51.072;17.174;2023-06-04T00:29:45;13.07;;;6.27;;
9076;SDS011;4574;51.072;17.174;2023-06-04T00:32:15;24.67;;;11.60;;
9076;SDS011;4574;51.072;17.174;2023-06-04T00:34:48;22.23;;;11.77;;
9076;SDS011;4574;51.072;17.174;2023-06-04T00:40:17;20.23;;;9.83;;
9076;SDS011;4574;51.072;17.174;2023-06-04T00:42:45;20.10;;;8.60;;
9076;SDS011;4574;51.072;17.174;2023-06-04T00:45:13;11.30;;;6.10;;
9076;SDS011;4574;51.072;17.174;2023-06-04T00:47:48;10.47;;;4.70;;
9076;SDS011;4574;51.072;17.174;2023-06-04T00:50:18;7.67;;;4.20;;
9076;SDS011;4574;51.072;17.174;2023-06-04T00:52:47;7.87;;;3.47;;
9076;SDS011;4574;51.072;17.174;2023-06-04T00:55:16;6.13;;;3.50;;
9076;SDS011;4574;51.072;17.174;2023-06-04T00:57:45;7.17;;;3.50;;
9076;SDS011;4574;51.072;17.174;2023-06-04T01:00:13;7.77;;;4.30;;
9076;SDS011;4574;51.072;17.174;2023-06-04T01:02:42;6.30;;;3.83;;
9076;SDS011;4574;51.072;17.174;2023-06-04T01:05:14;5.60;;;3.07;;
9076;SDS011;4574;51.072;17.174;2023-06-04T01:07:44;6.10;;;2.87;;
9076;SDS011;4574;51.072;17.174;2023-06-04T01:10:13;7.70;;;3.30;;
9076;SDS011;4574;51.072;17.174;2023-06-04T01:12:42;6.17;;;2.60;;
9076;SDS011;4574;51.072;17.174;2023-06-04T01:15:10;5.33;;;2.73;;
9076;SDS011;4574;51.072;17.174;2023-06-04T01:17:39;5.60;;;2.80;;
9076;SDS011;4574;51.072;17.174;2023-06-04T01:20:16;9.10;;;3.13;;
9076;SDS011;4574;51.072;17.174;2023-06-04T01:22:48;6.83;;;3.10;;
9076;SDS011;4574;51.072;17.174;2023-06-04T01:25:21;5.83;;;3.20;;
9076;SDS011;4574;51.072;17.174;2023-06-04T01:27:51;10.97;;;4.53;;
9076;SDS011;4574;51.072;17.174;2023-06-04T01:30:21;10.53;;;5.10;;
9076;SDS011;4574;51.072;17.174;2023-06-04T01:32:50;15.57;;;6.00;;
9076;SDS011;4574;51.072;17.174;2023-06-04T01:35:21;14.30;;;6.40;;
9076;SDS011;4574;51.072;17.174;2023-06-04T01:37:53;13.53;;;6.40;;
9076;SDS011;4574;51.072;17.174;2023-06-04T01:40:22;15.67;;;6.60;;
9076;SDS011;4574;51.072;17.174;2023-06-04T01:42:51;14.53;;;6.87;;
9076;SDS011;4574;51.072;17.174;2023-06-04T01:45:20;19.73;;;7.83;;
9076;SDS011;4574;51.072;17.174;2023-06-04T01:47:49;16.53;;;8.23;;
9076;SDS011;4574;51.072;17.174;2023-06-04T01:50:17;17.20;;;8.50;;
9076;SDS011;4574;51.072;17.174;2023-06-04T01:52:47;13.70;;;6.43;;
9076;SDS011;4574;51.072;17.174;2023-06-04T01:55:16;12.93;;;5.10;;
9076;SDS011;4574;51.072;17.174;2023-06-04T01:57:45;7.53;;;4.00;;
9076;SDS011;4574;51.072;17.174;2023-06-04T02:00:13;7.90;;;3.30;;
9076;SDS011;4574;51.072;17.174;2023-06-04T02:02:42;7.63;;;3.10;;
9076;SDS011;4574;51.072;17.174;2023-06-04T02:05:12;5.53;;;3.10;;
9076;SDS011;4574;51.072;17.174;2023-06-04T02:07:41;4.40;;;2.80;;
9076;SDS011;4574;51.072;17.174;2023-06-04T02:10:13;6.90;;;3.30;;
9076;SDS011;4574;51.072;17.174;2023-06-04T02:12:52;4.70;;;2.70;;
9076;SDS011;4574;51.072;17.174;2023-06-04T02:15:21;3.50;;;2.73;;
9076;SDS011;4574;51.072;17.174;2023-06-04T02:17:50;7.00;;;3.17;;
9076;SDS011;4574;51.072;17.174;2023-06-04T02:20:19;4.97;;;2.90;;
9076;SDS011;4574;51.072;17.174;2023-06-04T02:22:47;3.80;;;2.80;;
9076;SDS011;4574;51.072;17.174;2023-06-04T02:25:17;6.13;;;3.77;;
9076;SDS011;4574;51.072;17.174;2023-06-04T02:27:45;6.30;;;2.57;;
9076;SDS011;4574;51.072;17.174;2023-06-04T02:30:14;4.40;;;2.80;;
9076;SDS011;4574;51.072;17.174;2023-06-04T02:32:43;8.63;;;2.57;;
9076;SDS011;4574;51.072;17.174;2023-06-04T02:35:17;5.37;;;2.80;;
9076;SDS011;4574;51.072;17.174;2023-06-04T02:37:47;7.53;;;2.97;;
9076;SDS011;4574;51.072;17.174;2023-06-04T02:40:17;4.07;;;2.50;;
9076;SDS011;4574;51.072;17.174;2023-06-04T02:42:46;3.93;;;2.63;;
9076;SDS011;4574;51.072;17.174;2023-06-04T02:45:14;5.73;;;2.50;;
9076;SDS011;4574;51.072;17.174;2023-06-04T02:47:42;4.37;;;2.60;;
9076;SDS011;4574;51.072;17.174;2023-06-04T02:50:11;5.07;;;3.03;;
9076;SDS011;4574;51.072;17.174;2023-06-04T02:52:39;4.97;;;3.20;;
9076;SDS011;4574;51.072;17.174;2023-06-04T02:55:10;3.70;;;2.67;;
9076;SDS011;4574;51.072;17.174;2023-06-04T02:57:40;4.73;;;2.93;;
9076;SDS011;4574;51.072;17.174;2023-06-04T03:00:10;6.37;;;3.00;;
9076;SDS011;4574;51.072;17.174;2023-06-04T03:02:40;5.30;;;2.83;;
9076;SDS011;4574;51.072;17.174;2023-06-04T03:05:10;3.87;;;2.70;;
9076;SDS011;4574;51.072;17.174;2023-06-04T03:07:40;4.37;;;2.97;;
9076;SDS011;4574;51.072;17.174;2023-06-04T03:10:09;8.33;;;3.50;;
9076;SDS011;4574;51.072;17.174;2023-06-04T03:12:39;6.17;;;2.97;;
9076;SDS011;4574;51.072;17.174;2023-06-04T03:15:08;4.53;;;2.80;;
9076;SDS011;4574;51.072;17.174;2023-06-04T03:17:36;5.73;;;2.90;;
9076;SDS011;4574;51.072;17.174;2023-06-04T03:20:05;5.53;;;2.57;;
9076;SDS011;4574;51.072;17.174;2023-06-04T03:22:34;5.23;;;3.20;;
9076;SDS011;4574;51.072;17.174;2023-06-04T03:25:03;5.00;;;3.33;;
9076;SDS011;4574;51.072;17.174;2023-06-04T03:27:32;6.20;;;2.87;;
9076;SDS011;4574;51.072;17.174;2023-06-04T03:30:02;6.27;;;3.00;;
9076;SDS011;4574;51.072;17.174;2023-06-04T03:32:30;6.27;;;3.37;;
9076;SDS011;4574;51.072;17.174;2023-06-04T03:34:59;7.43;;;3.20;;
9076;SDS011;4574;51.072;17.174;2023-06-04T03:37:27;7.10;;;3.20;;
9076;SDS011;4574;51.072;17.174;2023-06-04T03:39:56;5.13;;;3.30;;
9076;SDS011;4574;51.072;17.174;2023-06-04T03:42:24;9.77;;;3.23;;
9076;SDS011;4574;51.072;17.174;2023-06-04T03:44:52;8.90;;;3.10;;
9076;SDS011;4574;51.072;17.174;2023-06-04T03:47:22;8.47;;;3.47;;
9076;SDS011;4574;51.072;17.174;2023-06-04T03:49:50;4.03;;;3.03;;
9076;SDS011;4574;51.072;17.174;2023-06-04T03:52:19;6.37;;;3.13;;
9076;SDS011;4574;51.072;17.174;2023-06-04T03:54:47;5.07;;;3.00;;
9076;SDS011;4574;51.072;17.174;2023-06-04T03:57:15;4.83;;;2.83;;
9076;SDS011;4574;51.072;17.174;2023-06-04T03:59:44;5.83;;;2.87;;
9076;SDS011;4574;51.072;17.174;2023-06-04T04:02:12;5.27;;;3.00;;
9076;SDS011;4574;51.072;17.174;2023-06-04T04:04:42;5.50;;;2.37;;
9076;SDS011;4574;51.072;17.174;2023-06-04T04:07:10;5.70;;;2.77;;
9076;SDS011;4574;51.072;17.174;2023-06-04T04:09:39;5.70;;;3.03;;
9076;SDS011;4574;51.072;17.174;2023-06-04T04:12:07;4.40;;;2.53;;
9076;SDS011;4574;51.072;17.174;2023-06-04T04:14:36;3.43;;;2.60;;
9076;SDS011;4574;51.072;17.174;2023-06-04T04:17:04;3.20;;;2.63;;
9076;SDS011;4574;51.072;17.174;2023-06-04T04:19:32;5.83;;;3.13;;
9076;SDS011;4574;51.072;17.174;2023-06-04T04:22:02;6.23;;;3.50;;
9076;SDS011;4574;51.072;17.174;2023-06-04T04:24:31;8.77;;;3.90;;
9076;SDS011;4574;51.072;17.174;2023-06-04T04:27:01;7.20;;;3.93;;
9076;SDS011;4574;51.072;17.174;2023-06-04T04:29:30;6.30;;;3.43;;
9076;SDS011;4574;51.072;17.174;2023-06-04T04:31:59;5.53;;;3.23;;
9076;SDS011;4574;51.072;17.174;2023-06-04T04:34:28;4.30;;;3.00;;
9076;SDS011;4574;51.072;17.174;2023-06-04T04:36:59;4.50;;;3.00;;
9076;SDS011;4574;51.072;17.174;2023-06-04T04:39:31;5.70;;;3.13;;
9076;SDS011;4574;51.072;17.174;2023-06-04T04:41:59;4.87;;;2.90;;
9076;SDS011;4574;51.072;17.174;2023-06-04T04:44:28;6.07;;;2.70;;
9076;SDS011;4574;51.072;17.174;2023-06-04T04:46:56;11.43;;;2.70;;
9076;SDS011;4574;51.072;17.174;2023-06-04T04:49:25;9.53;;;2.57;;
9076;SDS011;4574;51.072;17.174;2023-06-04T04:51:53;5.30;;;3.03;;
9076;SDS011;4574;51.072;17.174;2023-06-04T04:54:21;7.83;;;2.77;;
9076;SDS011;4574;51.072;17.174;2023-06-04T04:56:51;5.03;;;2.40;;
9076;SDS011;4574;51.072;17.174;2023-06-04T04:59:38;3.77;;;2.53;;
9076;SDS011;4574;51.072;17.174;2023-06-04T05:02:06;4.77;;;3.00;;
9076;SDS011;4574;51.072;17.174;2023-06-04T05:04:35;4.07;;;2.43;;
9076;SDS011;4574;51.072;17.174;2023-06-04T05:07:03;4.50;;;2.70;;
9076;SDS011;4574;51.072;17.174;2023-06-04T05:09:31;3.57;;;2.53;;
9076;SDS011;4574;51.072;17.174;2023-06-04T05:12:01;3.27;;;2.07;;
9076;SDS011;4574;51.072;17.174;2023-06-04T05:14:30;5.80;;;2.73;;
9076;SDS011;4574;51.072;17.174;2023-06-04T05:16:59;8.53;;;2.40;;
9076;SDS011;4574;51.072;17.174;2023-06-04T05:19:27;4.77;;;2.67;;
9076;SDS011;4574;51.072;17.174;2023-06-04T05:21:59;5.60;;;2.40;;
9076;SDS011;4574;51.072;17.174;2023-06-04T05:24:29;3.00;;;2.10;;
9076;SDS011;4574;51.072;17.174;2023-06-04T05:27:03;2.67;;;2.10;;
9076;SDS011;4574;51.072;17.174;2023-06-04T05:29:31;6.50;;;2.63;;
9076;SDS011;4574;51.072;17.174;2023-06-04T05:31:59;3.43;;;2.43;;
9076;SDS011;4574;51.072;17.174;2023-06-04T05:34:28;7.30;;;2.67;;
9076;SDS011;4574;51.072;17.174;2023-06-04T05:36:56;8.63;;;2.07;;
9076;SDS011;4574;51.072;17.174;2023-06-04T05:39:24;4.43;;;2.10;;
9076;SDS011;4574;51.072;17.174;2023-06-04T05:41:53;4.57;;;2.37;;
9076;SDS011;4574;51.072;17.174;2023-06-04T05:44:22;4.83;;;2.30;;
9076;SDS011;4574;51.072;17.174;2023-06-04T05:46:51;2.50;;;2.30;;
9076;SDS011;4574;51.072;17.174;2023-06-04T05:49:19;2.57;;;2.37;;
9076;SDS011;4574;51.072;17.174;2023-06-04T05:51:51;2.90;;;2.43;;
9076;SDS011;4574;51.072;17.174;2023-06-04T05:54:19;2.53;;;2.00;;
9076;SDS011;4574;51.072;17.174;2023-06-04T05:56:47;8.50;;;2.57;;
9076;SDS011;4574;51.072;17.174;2023-06-04T05:59:16;3.87;;;2.40;;
9076;SDS011;4574;51.072;17.174;2023-06-04T06:01:45;3.97;;;2.47;;
9076;SDS011;4574;51.072;17.174;2023-06-04T06:04:14;3.70;;;1.83;;
9076;SDS011;4574;51.072;17.174;2023-06-04T06:06:42;4.17;;;2.30;;
9076;SDS011;4574;51.072;17.174;2023-06-04T06:09:14;2.97;;;2.07;;
9076;SDS011;4574;51.072;17.174;2023-06-04T06:11:42;4.73;;;2.03;;
9076;SDS011;4574;51.072;17.174;2023-06-04T06:14:10;3.33;;;2.20;;
9076;SDS011;4574;51.072;17.174;2023-06-04T06:16:38;3.20;;;2.07;;
9076;SDS011;4574;51.072;17.174;2023-06-04T06:19:08;3.47;;;2.10;;
9076;SDS011;4574;51.072;17.174;2023-06-04T06:21:37;4.97;;;2.20;;
9076;SDS011;4574;51.072;17.174;2023-06-04T06:24:06;3.73;;;2.00;;
9076;SDS011;4574;51.072;17.174;2023-06-04T06:26:34;4.17;;;1.80;;
9076;SDS011;4574;51.072;17.174;2023-06-04T06:29:03;3.57;;;2.00;;
9076;SDS011;4574;51.072;17.174;2023-06-04T06:31:31;3.90;;;1.80;;
9076;SDS011;4574;51.072;17.174;2023-06-04T06:33:59;4.20;;;1.83;;
9076;SDS011;4574;51.072;17.174;2023-06-04T06:36:29;2.27;;;1.83;;
9076;SDS011;4574;51.072;17.174;2023-06-04T06:38:57;2.90;;;1.70;;
9076;SDS011;4574;51.072;17.174;2023-06-04T06:41:25;6.70;;;2.13;;
9076;SDS011;4574;51.072;17.174;2023-06-04T06:43:54;7.87;;;2.10;;
9076;SDS011;4574;51.072;17.174;2023-06-04T06:46:22;3.33;;;2.20;;
9076;SDS011;4574;51.072;17.174;2023-06-04T06:48:50;4.10;;;1.80;;
9076;SDS011;4574;51.072;17.174;2023-06-04T06:51:19;3.40;;;1.90;;
9076;SDS011;4574;51.072;17.174;2023-06-04T06:53:49;4.73;;;1.83;;
9076;SDS011;4574;51.072;17.174;2023-06-04T06:56:18;3.30;;;1.90;;
9076;SDS011;4574;51.072;17.174;2023-06-04T06:58:46;5.80;;;2.00;;
9076;SDS011;4574;51.072;17.174;2023-06-04T07:01:14;3.00;;;2.07;;
9076;SDS011;4574;51.072;17.174;2023-06-04T07:03:43;3.43;;;1.90;;
9076;SDS011;4574;51.072;17.174;2023-06-04T07:06:11;2.10;;;1.90;;
9076;SDS011;4574;51.072;17.174;2023-06-04T07:08:39;4.03;;;1.83;;
9076;SDS011;4574;51.072;17.174;2023-06-04T07:11:10;4.03;;;1.93;;
9076;SDS011;4574;51.072;17.174;2023-06-04T07:13:38;4.73;;;2.30;;
9076;SDS011;4574;51.072;17.174;2023-06-04T07:16:07;3.53;;;2.10;;
9076;SDS011;4574;51.072;17.174;2023-06-04T07:18:35;2.70;;;2.13;;
9076;SDS011;4574;51.072;17.174;2023-06-04T07:21:03;2.83;;;1.80;;
9076;SDS011;4574;51.072;17.174;2023-06-04T07:23:32;2.50;;;1.77;;
9076;SDS011;4574;51.072;17.174;2023-06-04T07:26:01;5.90;;;1.60;;
9076;SDS011;4574;51.072;17.174;2023-06-04T07:28:30;3.40;;;1.43;;
9076;SDS011;4574;51.072;17.174;2023-06-04T07:31:00;2.07;;;1.47;;
9076;SDS011;4574;51.072;17.174;2023-06-04T07:33:28;1.80;;;1.40;;
9076;SDS011;4574;51.072;17.174;2023-06-04T07:35:57;3.73;;;1.97;;
9076;SDS011;4574;51.072;17.174;2023-06-04T07:38:25;3.33;;;1.60;;
9076;SDS011;4574;51.072;17.174;2023-06-04T07:40:53;3.63;;;1.70;;
9076;SDS011;4574;51.072;17.174;2023-06-04T07:43:22;4.17;;;2.23;;
9076;SDS011;4574;51.072;17.174;2023-06-04T07:45:51;6.47;;;2.07;;
9076;SDS011;4574;51.072;17.174;2023-06-04T07:48:20;1.97;;;1.73;;
9076;SDS011;4574;51.072;17.174;2023-06-04T07:50:48;2.73;;;1.57;;
9076;SDS011;4574;51.072;17.174;2023-06-04T07:53:16;3.47;;;1.70;;
9076;SDS011;4574;51.072;17.174;2023-06-04T07:55:45;2.67;;;2.00;;
9076;SDS011;4574;51.072;17.174;2023-06-04T07:58:13;4.20;;;1.57;;
9076;SDS011;4574;51.072;17.174;2023-06-04T08:00:42;2.97;;;1.73;;
9076;SDS011;4574;51.072;17.174;2023-06-04T08:03:21;2.53;;;1.80;;
9076;SDS011;4574;51.072;17.174;2023-06-04T08:06:03;3.83;;;1.90;;
9076;SDS011;4574;51.072;17.174;2023-06-04T08:08:32;3.77;;;1.70;;
9076;SDS011;4574;51.072;17.174;2023-06-04T08:11:01;2.23;;;1.67;;
9076;SDS011;4574;51.072;17.174;2023-06-04T08:13:29;2.03;;;1.60;;
9076;SDS011;4574;51.072;17.174;2023-06-04T08:15:58;2.37;;;1.50;;
9076;SDS011;4574;51.072;17.174;2023-06-04T08:18:27;5.43;;;1.30;;
9076;SDS011;4574;51.072;17.174;2023-06-04T08:20:56;2.37;;;1.57;;
9076;SDS011;4574;51.072;17.174;2023-06-04T08:23:24;5.83;;;1.60;;
9076;SDS011;4574;51.072;17.174;2023-06-04T08:25:52;1.50;;;1.30;;
9076;SDS011;4574;51.072;17.174;2023-06-04T08:28:21;1.83;;;1.43;;
9076;SDS011;4574;51.072;17.174;2023-06-04T08:30:49;2.17;;;1.40;;
9076;SDS011;4574;51.072;17.174;2023-06-04T08:33:17;1.97;;;1.40;;
9076;SDS011;4574;51.072;17.174;2023-06-04T08:35:47;3.07;;;1.37;;
9076;SDS011;4574;51.072;17.174;2023-06-04T08:38:15;1.87;;;1.00;;
9076;SDS011;4574;51.072;17.174;2023-06-04T08:40:43;3.80;;;1.40;;
9076;SDS011;4574;51.072;17.174;2023-06-04T08:43:12;2.37;;;1.10;;
9076;SDS011;4574;51.072;17.174;2023-06-04T08:45:42;2.77;;;1.40;;
9076;SDS011;4574;51.072;17.174;2023-06-04T08:48:15;3.17;;;1.37;;
9076;SDS011;4574;51.072;17.174;2023-06-04T08:50:48;2.70;;;1.50;;
9076;SDS011;4574;51.072;17.174;2023-06-04T08:53:16;1.63;;;1.27;;
9076;SDS011;4574;51.072;17.174;2023-06-04T08:55:45;2.10;;;1.47;;
9076;SDS011;4574;51.072;17.174;2023-06-04T08:58:14;1.30;;;1.20;;
9076;SDS011;4574;51.072;17.174;2023-06-04T09:00:42;1.50;;;1.30;;
9076;SDS011;4574;51.072;17.174;2023-06-04T09:03:11;2.10;;;1.30;;
9076;SDS011;4574;51.072;17.174;2023-06-04T09:05:41;1.20;;;1.10;;
9076;SDS011;4574;51.072;17.174;2023-06-04T09:08:15;2.63;;;1.10;;
9076;SDS011;4574;51.072;17.174;2023-06-04T09:10:45;2.27;;;1.30;;
9076;SDS011;4574;51.072;17.174;2023-06-04T09:13:16;1.67;;;1.20;;
9076;SDS011;4574;51.072;17.174;2023-06-04T09:15:45;3.53;;;1.50;;
9076;SDS011;4574;51.072;17.174;2023-06-04T09:18:13;5.17;;;1.20;;
9076;SDS011;4574;51.072;17.174;2023-06-04T09:20:41;3.87;;;1.20;;
9076;SDS011;4574;51.072;17.174;2023-06-04T09:23:13;3.30;;;1.40;;
9076;SDS011;4574;51.072;17.174;2023-06-04T09:25:43;1.40;;;1.20;;
9076;SDS011;4574;51.072;17.174;2023-06-04T09:28:12;4.53;;;1.10;;
9076;SDS011;4574;51.072;17.174;2023-06-04T09:30:50;1.93;;;1.40;;
9076;SDS011;4574;51.072;17.174;2023-06-04T09:33:18;1.23;;;1.10;;
9076;SDS011;4574;51.072;17.174;2023-06-04T09:35:53;1.33;;;1.00;;
9076;SDS011;4574;51.072;17.174;2023-06-04T09:38:21;5.50;;;1.10;;
9076;SDS011;4574;51.072;17.174;2023-06-04T09:40:51;1.33;;;0.93;;
9076;SDS011;4574;51.072;17.174;2023-06-04T09:43:22;0.97;;;0.90;;
9076;SDS011;4574;51.072;17.174;2023-06-04T09:45:53;6.27;;;2.20;;
9076;SDS011;4574;51.072;17.174;2023-06-04T09:48:22;1.73;;;1.03;;
9076;SDS011;4574;51.072;17.174;2023-06-04T09:50:50;2.40;;;1.30;;
9076;SDS011;4574;51.072;17.174;2023-06-04T09:53:19;3.60;;;1.20;;
9076;SDS011;4574;51.072;17.174;2023-06-04T09:55:57;2.70;;;1.20;;
9076;SDS011;4574;51.072;17.174;2023-06-04T09:58:25;1.47;;;1.10;;
9076;SDS011;4574;51.072;17.174;2023-06-04T10:00:54;1.47;;;0.93;;
9076;SDS011;4574;51.072;17.174;2023-06-04T10:03:28;1.43;;;1.10;;
9076;SDS011;4574;51.072;17.174;2023-06-04T10:06:00;1.43;;;1.23;;
9076;SDS011;4574;51.072;17.174;2023-06-04T10:08:29;2.20;;;1.47;;
9076;SDS011;4574;51.072;17.174;2023-06-04T10:11:00;2.47;;;1.30;;
9076;SDS011;4574;51.072;17.174;2023-06-04T10:13:29;2.00;;;1.33;;
9076;SDS011;4574;51.072;17.174;2023-06-04T10:15:58;2.03;;;1.60;;
9076;SDS011;4574;51.072;17.174;2023-06-04T10:18:27;1.83;;;1.40;;
9076;SDS011;4574;51.072;17.174;2023-06-04T10:20:55;3.30;;;1.13;;
9076;SDS011;4574;51.072;17.174;2023-06-04T10:23:24;1.57;;;1.13;;
9076;SDS011;4574;51.072;17.174;2023-06-04T10:25:52;3.60;;;1.20;;
9076;SDS011;4574;51.072;17.174;2023-06-04T10:28:22;1.43;;;1.33;;
9076;SDS011;4574;51.072;17.174;2023-06-04T10:30:51;3.83;;;1.20;;
9076;SDS011;4574;51.072;17.174;2023-06-04T10:33:19;1.73;;;1.13;;
9076;SDS011;4574;51.072;17.174;2023-06-04T10:35:53;1.73;;;1.07;;
9076;SDS011;4574;51.072;17.174;2023-06-04T10:38:24;2.43;;;1.17;;
9076;SDS011;4574;51.072;17.174;2023-06-04T10:40:53;3.23;;;1.20;;
9076;SDS011;4574;51.072;17.174;2023-06-04T10:43:22;1.30;;;1.20;;
9076;SDS011;4574;51.072;17.174;2023-06-04T10:45:57;1.80;;;1.33;;
9076;SDS011;4574;51.072;17.174;2023-06-04T10:48:25;1.53;;;1.00;;
9076;SDS011;4574;51.072;17.174;2023-06-04T10:50:54;4.20;;;1.07;;
9076;SDS011;4574;51.072;17.174;2023-06-04T10:53:22;1.23;;;1.13;;
9076;SDS011;4574;51.072;17.174;2023-06-04T10:55:52;3.27;;;1.20;;
9076;SDS011;4574;51.072;17.174;2023-06-04T10:58:20;1.57;;;0.87;;
9076;SDS011;4574;51.072;17.174;2023-06-04T11:00:49;1.10;;;1.00;;
9076;SDS011;4574;51.072;17.174;2023-06-04T11:03:18;2.00;;;1.10;;
9076;SDS011;4574;51.072;17.174;2023-06-04T11:05:46;2.37;;;1.20;;
9076;SDS011;4574;51.072;17.174;2023-06-04T11:08:25;1.20;;;1.10;;
9076;SDS011;4574;51.072;17.174;2023-06-04T11:10:55;1.97;;;1.30;;
9076;SDS011;4574;51.072;17.174;2023-06-04T11:13:23;3.00;;;1.20;;
9076;SDS011;4574;51.072;17.174;2023-06-04T11:15:54;1.60;;;1.20;;
9076;SDS011;4574;51.072;17.174;2023-06-04T11:18:23;2.97;;;1.50;;
9076;SDS011;4574;51.072;17.174;2023-06-04T11:20:58;1.87;;;1.33;;
9076;SDS011;4574;51.072;17.174;2023-06-04T11:23:26;19.53;;;2.90;;
9076;SDS011;4574;51.072;17.174;2023-06-04T11:25:55;8.43;;;1.30;;
9076;SDS011;4574;51.072;17.174;2023-06-04T11:28:25;3.53;;;1.13;;
9076;SDS011;4574;51.072;17.174;2023-06-04T11:30:58;1.40;;;1.30;;
9076;SDS011;4574;51.072;17.174;2023-06-04T11:33:30;11.03;;;1.50;;
9076;SDS011;4574;51.072;17.174;2023-06-04T11:35:58;2.20;;;1.23;;
9076;SDS011;4574;51.072;17.174;2023-06-04T11:38:26;2.23;;;1.30;;
9076;SDS011;4574;51.072;17.174;2023-06-04T11:40:56;2.50;;;1.57;;
9076;SDS011;4574;51.072;17.174;2023-06-04T11:43:24;1.70;;;1.30;;
9076;SDS011;4574;51.072;17.174;2023-06-04T11:45:53;1.23;;;1.13;;
9076;SDS011;4574;51.072;17.174;2023-06-04T11:48:22;2.43;;;1.20;;
9076;SDS011;4574;51.072;17.174;2023-06-04T11:50:51;3.00;;;1.37;;
9076;SDS011;4574;51.072;17.174;2023-06-04T11:53:21;4.10;;;1.47;;
9076;SDS011;4574;51.072;17.174;2023-06-04T11:55:51;1.30;;;1.20;;
9076;SDS011;4574;51.072;17.174;2023-06-04T11:58:20;3.10;;;1.23;;
9076;SDS011;4574;51.072;17.174;2023-06-04T12:00:51;3.30;;;1.47;;
9076;SDS011;4574;51.072;17.174;2023-06-04T12:03:34;1.30;;;1.20;;
9076;SDS011;4574;51.072;17.174;2023-06-04T12:06:11;1.50;;;1.17;;
9076;SDS011;4574;51.072;17.174;2023-06-04T12:08:46;4.57;;;1.37;;
9076;SDS011;4574;51.072;17.174;2023-06-04T12:11:25;1.30;;;1.20;;
9076;SDS011;4574;51.072;17.174;2023-06-04T12:13:56;4.23;;;1.20;;
9076;SDS011;4574;51.072;17.174;2023-06-04T12:16:25;2.23;;;1.20;;
9076;SDS011;4574;51.072;17.174;2023-06-04T12:19:05;1.50;;;1.30;;
9076;SDS011;4574;51.072;17.174;2023-06-04T12:21:35;2.90;;;1.17;;
9076;SDS011;4574;51.072;17.174;2023-06-04T12:24:08;4.90;;;3.20;;
9076;SDS011;4574;51.072;17.174;2023-06-04T12:26:38;3.23;;;1.53;;
9076;SDS011;4574;51.072;17.174;2023-06-04T12:29:09;2.83;;;1.20;;
9076;SDS011;4574;51.072;17.174;2023-06-04T12:31:39;3.00;;;1.20;;
9076;SDS011;4574;51.072;17.174;2023-06-04T12:34:14;6.10;;;1.40;;
9076;SDS011;4574;51.072;17.174;2023-06-04T12:36:45;2.07;;;1.20;;
9076;SDS011;4574;51.072;17.174;2023-06-04T12:39:14;3.30;;;1.30;;
9076;SDS011;4574;51.072;17.174;2023-06-04T12:41:44;1.10;;;1.00;;
9076;SDS011;4574;51.072;17.174;2023-06-04T12:44:13;1.47;;;1.00;;
9076;SDS011;4574;51.072;17.174;2023-06-04T12:46:44;5.20;;;1.70;;
9076;SDS011;4574;51.072;17.174;2023-06-04T12:49:15;4.60;;;1.30;;
9076;SDS011;4574;51.072;17.174;2023-06-04T12:51:45;1.97;;;1.40;;
9076;SDS011;4574;51.072;17.174;2023-06-04T12:54:17;4.10;;;1.10;;
9076;SDS011;4574;51.072;17.174;2023-06-04T12:56:46;4.27;;;1.53;;
9076;SDS011;4574;51.072;17.174;2023-06-04T12:59:16;3.57;;;1.20;;
9076;SDS011;4574;51.072;17.174;2023-06-04T13:01:47;2.30;;;1.30;;
9076;SDS011;4574;51.072;17.174;2023-06-04T13:04:20;2.20;;;1.33;;
9076;SDS011;4574;51.072;17.174;2023-06-04T13:06:52;1.63;;;1.30;;
9076;SDS011;4574;51.072;17.174;2023-06-04T13:09:29;3.97;;;1.40;;
9076;SDS011;4574;51.072;17.174;2023-06-04T13:12:05;3.37;;;1.30;;
9076;SDS011;4574;51.072;17.174;2023-06-04T13:14:40;2.53;;;1.30;;
9076;SDS011;4574;51.072;17.174;2023-06-04T13:17:13;7.30;;;1.50;;
9076;SDS011;4574;51.072;17.174;2023-06-04T13:19:51;3.67;;;1.40;;
9076;SDS011;4574;51.072;17.174;2023-06-04T13:22:20;1.70;;;1.47;;
9076;SDS011;4574;51.072;17.174;2023-06-04T13:24:52;1.23;;;1.13;;
9076;SDS011;4574;51.072;17.174;2023-06-04T13:27:22;1.70;;;1.50;;
9076;SDS011;4574;51.072;17.174;2023-06-04T13:29:55;2.60;;;1.13;;
9076;SDS011;4574;51.072;17.174;2023-06-04T13:32:29;3.27;;;1.70;;
9076;SDS011;4574;51.072;17.174;2023-06-04T13:35:06;1.90;;;1.30;;
9076;SDS011;4574;51.072;17.174;2023-06-04T13:37:36;2.20;;;1.10;;
9076;SDS011;4574;51.072;17.174;2023-06-04T13:40:13;2.13;;;1.10;;
9076;SDS011;4574;51.072;17.174;2023-06-04T13:42:45;5.93;;;1.50;;
9076;SDS011;4574;51.072;17.174;2023-06-04T13:45:19;2.00;;;1.10;;
9076;SDS011;4574;51.072;17.174;2023-06-04T13:47:53;2.60;;;1.20;;
9076;SDS011;4574;51.072;17.174;2023-06-04T13:50:31;1.60;;;0.90;;
9076;SDS011;4574;51.072;17.174;2023-06-04T13:53:06;1.47;;;1.17;;
9076;SDS011;4574;51.072;17.174;2023-06-04T13:55:39;2.60;;;1.30;;
9076;SDS011;4574;51.072;17.174;2023-06-04T13:58:12;1.67;;;1.40;;
9076;SDS011;4574;51.072;17.174;2023-06-04T14:00:46;1.60;;;1.00;;
9076;SDS011;4574;51.072;17.174;2023-06-04T14:03:20;3.40;;;1.20;;
9076;SDS011;4574;51.072;17.174;2023-06-04T14:05:54;1.50;;;1.23;;
9076;SDS011;4574;51.072;17.174;2023-06-04T14:08:27;2.93;;;1.20;;
9076;SDS011;4574;51.072;17.174;2023-06-04T14:10:59;3.63;;;1.20;;
9076;SDS011;4574;51.072;17.174;2023-06-04T14:13:29;1.27;;;1.17;;
9076;SDS011;4574;51.072;17.174;2023-06-04T14:15:59;3.97;;;1.20;;
9076;SDS011;4574;51.072;17.174;2023-06-04T14:18:34;6.20;;;1.20;;
9076;SDS011;4574;51.072;17.174;2023-06-04T14:21:11;2.63;;;1.20;;
9076;SDS011;4574;51.072;17.174;2023-06-04T14:23:45;2.00;;;1.20;;
9076;SDS011;4574;51.072;17.174;2023-06-04T14:26:20;3.23;;;1.10;;
9076;SDS011;4574;51.072;17.174;2023-06-04T14:28:55;3.60;;;1.33;;
9076;SDS011;4574;51.072;17.174;2023-06-04T14:31:32;2.63;;;1.23;;
9076;SDS011;4574;51.072;17.174;2023-06-04T14:34:06;3.30;;;1.23;;
9076;SDS011;4574;51.072;17.174;2023-06-04T14:36:45;1.77;;;1.20;;
9076;SDS011;4574;51.072;17.174;2023-06-04T14:39:18;2.40;;;1.23;;
9076;SDS011;4574;51.072;17.174;2023-06-04T14:41:52;2.37;;;1.30;;
9076;SDS011;4574;51.072;17.174;2023-06-04T14:44:24;2.13;;;1.40;;
9076;SDS011;4574;51.072;17.174;2023-06-04T14:47:00;1.20;;;1.10;;
9076;SDS011;4574;51.072;17.174;2023-06-04T14:49:31;2.83;;;1.33;;
9076;SDS011;4574;51.072;17.174;2023-06-04T14:52:05;1.73;;;1.07;;
9076;SDS011;4574;51.072;17.174;2023-06-04T14:54:37;2.97;;;1.10;;
9076;SDS011;4574;51.072;17.174;2023-06-04T14:57:08;1.60;;;1.20;;
9076;SDS011;4574;51.072;17.174;2023-06-04T14:59:48;3.73;;;1.60;;
9076;SDS011;4574;51.072;17.174;2023-06-04T15:02:25;2.57;;;1.30;;
9076;SDS011;4574;51.072;17.174;2023-06-04T15:04:59;1.90;;;1.30;;
9076;SDS011;4574;51.072;17.174;2023-06-04T15:07:36;1.83;;;1.20;;
9076;SDS011;4574;51.072;17.174;2023-06-04T15:10:12;2.87;;;1.10;;
9076;SDS011;4574;51.072;17.174;2023-06-04T15:12:46;2.20;;;1.43;;
9076;SDS011;4574;51.072;17.174;2023-06-04T15:15:20;7.43;;;1.30;;
9076;SDS011;4574;51.072;17.174;2023-06-04T15:17:54;1.80;;;1.13;;
9076;SDS011;4574;51.072;17.174;2023-06-04T15:20:22;4.57;;;1.27;;